createdAt,value
2019-03-15T00:00:34.111Z,3.30
2019-03-15T00:01:34.183Z,3.30
2019-03-15T00:02:34.130Z,3.30
2019-03-15T00:03:34.190Z,3.30
2019-03-15T00:04:34.192Z,3.30
2019-03-15T00:05:34.235Z,3.20
2019-03-15T00:06:34.191Z,3.20
2019-03-15T00:07:34.193Z,3.20
2019-03-15T00:08:34.181Z,3.20
2019-03-15T00:09:34.192Z,3.20
2019-03-15T00:10:34.191Z,3.20
2019-03-15T00:11:34.192Z,3.20
2019-03-15T00:12:34.129Z,3.20
2019-03-15T00:13:34.199Z,3.20
2019-03-15T00:14:34.185Z,3.20
2019-03-15T00:15:34.123Z,3.20
2019-03-15T00:16:34.203Z,3.30
2019-03-15T00:17:34.198Z,3.30
2019-03-15T00:18:34.138Z,3.30
2019-03-15T00:19:34.205Z,3.30
2019-03-15T00:20:34.207Z,3.30
2019-03-15T00:21:34.201Z,3.30
2019-03-15T00:22:34.200Z,3.30
2019-03-15T00:23:34.202Z,3.30
2019-03-15T00:24:34.210Z,3.30
2019-03-15T00:25:34.200Z,3.30
2019-03-15T00:26:34.073Z,3.20
2019-03-15T00:27:34.095Z,3.20
2019-03-15T00:28:34.066Z,3.20
2019-03-15T00:29:34.181Z,3.20
2019-03-15T00:30:34.103Z,3.20
2019-03-15T00:31:34.101Z,3.20
2019-03-15T00:32:34.075Z,3.20
2019-03-15T00:33:34.142Z,3.20
2019-03-15T00:34:34.131Z,3.20
2019-03-15T00:35:34.146Z,3.20
2019-03-15T00:36:34.206Z,3.20
2019-03-15T00:37:34.140Z,3.20
2019-03-15T00:38:34.148Z,3.20
2019-03-15T00:39:34.141Z,3.20
2019-03-15T00:40:34.213Z,3.20
2019-03-15T00:41:34.222Z,3.20
2019-03-15T00:42:34.576Z,3.20
2019-03-15T00:43:34.145Z,3.20
2019-03-15T00:44:34.217Z,3.20
2019-03-15T00:45:34.220Z,3.20
2019-03-15T00:46:34.205Z,2.90
2019-03-15T00:47:34.204Z,2.90
2019-03-15T00:48:34.116Z,2.90
2019-03-15T00:49:34.131Z,2.90
2019-03-15T00:50:34.107Z,2.90
2019-03-15T00:51:34.202Z,2.90
2019-03-15T00:52:34.211Z,2.90
2019-03-15T00:53:34.138Z,2.90
2019-03-15T00:54:34.235Z,2.90
2019-03-15T00:55:34.180Z,2.90
2019-03-15T00:56:34.144Z,2.60
2019-03-15T00:57:34.156Z,2.60
2019-03-15T00:58:34.214Z,2.60
2019-03-15T00:59:34.149Z,2.60
2019-03-15T01:00:34.149Z,2.60
2019-03-15T01:01:34.217Z,2.60
2019-03-15T01:02:34.152Z,2.60
2019-03-15T01:03:34.263Z,2.60
2019-03-15T01:04:34.219Z,2.60
2019-03-15T01:05:34.152Z,2.60
2019-03-15T01:06:34.155Z,2.70
2019-03-15T01:07:34.098Z,2.70
2019-03-15T01:08:34.086Z,2.70
2019-03-15T01:09:34.179Z,2.70
2019-03-15T01:10:34.184Z,2.70
2019-03-15T01:11:34.314Z,2.70
2019-03-15T01:12:34.158Z,2.70
2019-03-15T01:13:34.152Z,2.70
2019-03-15T01:14:34.187Z,2.70
2019-03-15T01:15:34.152Z,2.70
2019-03-15T01:16:34.763Z,3.40
2019-03-15T01:17:34.239Z,3.40
2019-03-15T01:18:34.229Z,3.40
2019-03-15T01:19:34.231Z,3.40
2019-03-15T01:20:34.237Z,3.40
2019-03-15T01:21:34.163Z,3.40
2019-03-15T01:22:34.246Z,3.40
2019-03-15T01:23:34.192Z,3.40
2019-03-15T01:24:34.162Z,3.40
2019-03-15T01:25:34.291Z,3.40
2019-03-15T01:26:34.260Z,3.80
2019-03-15T01:27:34.189Z,3.80
2019-03-15T01:28:34.258Z,3.80
2019-03-15T01:29:34.246Z,3.80
2019-03-15T01:30:34.248Z,3.80
2019-03-15T01:31:34.180Z,3.80
2019-03-15T01:32:34.248Z,3.80
2019-03-15T01:33:34.193Z,3.80
2019-03-15T01:34:34.181Z,3.80
2019-03-15T01:35:34.199Z,3.80
2019-03-15T01:36:34.179Z,3.20
2019-03-15T01:37:34.229Z,3.20
2019-03-15T01:38:34.140Z,3.20
2019-03-15T01:39:34.240Z,3.20
2019-03-15T01:40:34.205Z,3.20
2019-03-15T01:41:34.111Z,3.20
2019-03-15T01:42:34.169Z,3.20
2019-03-15T01:43:34.199Z,3.20
2019-03-15T01:44:34.229Z,3.20
2019-03-15T01:45:34.109Z,3.20
2019-03-15T01:46:34.184Z,1.90
2019-03-15T01:47:34.253Z,1.90
2019-03-15T01:48:34.181Z,1.90
2019-03-15T01:49:34.255Z,1.90
2019-03-15T01:50:34.187Z,1.90
2019-03-15T01:51:34.149Z,1.90
2019-03-15T01:52:34.254Z,1.90
2019-03-15T01:53:34.194Z,1.90
2019-03-15T01:54:34.190Z,1.90
2019-03-15T01:55:34.273Z,1.90
2019-03-15T01:56:34.186Z,2.50
2019-03-15T01:57:34.163Z,2.50
2019-03-15T01:58:34.202Z,2.50
2019-03-15T01:59:34.232Z,2.50
2019-03-15T02:00:34.254Z,2.50
2019-03-15T02:01:34.135Z,2.50
2019-03-15T02:02:34.258Z,2.50
2019-03-15T02:03:34.229Z,2.50
2019-03-15T02:04:34.202Z,2.50
2019-03-15T02:05:34.197Z,2.50
2019-03-15T02:06:34.216Z,2.00
2019-03-15T02:07:34.572Z,2.00
2019-03-15T02:08:34.103Z,2.00
2019-03-15T02:09:34.144Z,2.00
2019-03-15T02:10:34.177Z,2.00
2019-03-15T02:11:34.221Z,2.00
2019-03-15T02:12:34.213Z,2.00
2019-03-15T02:13:34.244Z,2.00
2019-03-15T02:14:34.212Z,2.00
2019-03-15T02:15:34.157Z,2.00
2019-03-15T02:16:34.545Z,1.80
2019-03-15T02:17:34.221Z,1.80
2019-03-15T02:18:34.210Z,1.80
2019-03-15T02:19:34.979Z,1.80
2019-03-15T02:20:34.213Z,1.80
2019-03-15T02:21:34.224Z,1.80
2019-03-15T02:22:34.291Z,1.80
2019-03-15T02:23:34.182Z,1.80
2019-03-15T02:24:34.283Z,1.80
2019-03-15T02:25:34.215Z,1.80
2019-03-15T02:26:34.283Z,1.90
2019-03-15T02:27:34.301Z,1.90
2019-03-15T02:28:34.217Z,1.90
2019-03-15T02:29:34.289Z,1.90
2019-03-15T02:30:34.580Z,1.90
2019-03-15T02:31:34.312Z,1.90
2019-03-15T02:32:34.310Z,1.90
2019-03-15T02:33:34.318Z,1.90
2019-03-15T02:34:34.222Z,1.90
2019-03-15T02:35:34.226Z,1.90
2019-03-15T02:36:34.288Z,1.60
2019-03-15T02:37:34.228Z,1.60
2019-03-15T02:38:34.229Z,1.60
2019-03-15T02:39:34.293Z,1.60
2019-03-15T02:40:34.219Z,1.60
2019-03-15T02:41:34.292Z,1.60
2019-03-15T02:42:34.224Z,1.60
2019-03-15T02:43:34.237Z,1.60
2019-03-15T02:44:34.300Z,1.60
2019-03-15T02:45:34.301Z,1.60
2019-03-15T02:46:34.228Z,2.30
2019-03-15T02:47:34.309Z,2.30
2019-03-15T02:48:34.226Z,2.30
2019-03-15T02:49:34.973Z,2.30
2019-03-15T02:50:34.297Z,2.30
2019-03-15T02:51:34.287Z,2.30
2019-03-15T02:52:34.196Z,2.30
2019-03-15T02:53:34.861Z,2.30
2019-03-15T02:54:34.262Z,2.30
2019-03-15T02:55:34.310Z,2.30
2019-03-15T02:56:34.394Z,2.50
2019-03-15T02:57:35.494Z,2.50
2019-03-15T02:58:34.225Z,2.50
2019-03-15T02:59:34.303Z,2.50
2019-03-15T03:00:34.235Z,2.50
2019-03-15T03:01:34.307Z,2.50
2019-03-15T03:02:34.236Z,2.50
2019-03-15T03:03:34.304Z,2.50
2019-03-15T03:04:34.233Z,2.50
2019-03-15T03:05:34.669Z,2.50
2019-03-15T03:06:34.205Z,3.00
2019-03-15T03:07:34.264Z,3.00
2019-03-15T03:08:34.159Z,3.00
2019-03-15T03:09:34.413Z,3.00
2019-03-15T03:10:34.221Z,3.00
2019-03-15T03:11:34.220Z,3.00
2019-03-15T03:12:34.213Z,3.00
2019-03-15T03:13:34.259Z,3.00
2019-03-15T03:14:34.216Z,3.00
2019-03-15T03:15:34.289Z,3.00
2019-03-15T03:16:34.317Z,3.00
2019-03-15T03:17:34.313Z,3.00
2019-03-15T03:18:34.706Z,3.00
2019-03-15T03:19:34.309Z,3.00
2019-03-15T03:20:34.197Z,3.00
2019-03-15T03:21:34.184Z,3.00
2019-03-15T03:22:34.229Z,3.00
2019-03-15T03:23:34.310Z,3.00
2019-03-15T03:24:34.314Z,3.00
2019-03-15T03:25:34.320Z,3.00
2019-03-15T03:26:34.218Z,3.00
2019-03-15T03:27:34.380Z,3.00
2019-03-15T03:28:34.307Z,3.00
2019-03-15T03:29:34.325Z,3.00
2019-03-15T03:30:34.343Z,3.00
2019-03-15T03:31:34.314Z,3.00
2019-03-15T03:32:34.326Z,3.00
2019-03-15T03:33:34.238Z,3.00
2019-03-15T03:34:34.821Z,3.00
2019-03-15T03:35:34.240Z,3.00
2019-03-15T03:36:34.281Z,2.60
2019-03-15T03:37:34.335Z,2.60
2019-03-15T03:38:34.271Z,2.60
2019-03-15T03:39:34.725Z,2.60
2019-03-15T03:40:34.268Z,2.60
2019-03-15T03:41:34.342Z,2.60
2019-03-15T03:42:34.428Z,2.60
2019-03-15T03:43:34.351Z,2.60
2019-03-15T03:44:34.343Z,2.60
2019-03-15T03:45:34.388Z,2.60
2019-03-15T03:46:34.338Z,3.00
2019-03-15T03:47:34.270Z,3.00
2019-03-15T03:48:35.450Z,3.00
2019-03-15T03:49:34.270Z,3.00
2019-03-15T03:50:34.270Z,3.00
2019-03-15T03:51:34.343Z,3.00
2019-03-15T03:52:34.267Z,3.00
2019-03-15T03:53:34.350Z,3.00
2019-03-15T03:54:34.340Z,3.00
2019-03-15T03:55:34.275Z,3.00
2019-03-15T03:56:34.341Z,2.90
2019-03-15T03:57:34.271Z,2.90
2019-03-15T03:58:34.412Z,2.90
2019-03-15T03:59:34.347Z,2.90
2019-03-15T04:00:34.278Z,2.90
2019-03-15T04:01:34.347Z,2.90
2019-03-15T04:02:34.269Z,2.90
2019-03-15T04:03:34.344Z,2.90
2019-03-15T04:04:34.280Z,2.90
2019-03-15T04:05:34.279Z,2.90
2019-03-15T04:06:34.289Z,3.30
2019-03-15T04:07:34.289Z,3.30
2019-03-15T04:08:34.300Z,3.30
2019-03-15T04:09:34.369Z,3.30
2019-03-15T04:10:34.376Z,3.30
2019-03-15T04:11:34.364Z,3.30
2019-03-15T04:12:34.336Z,3.30
2019-03-15T04:13:34.367Z,3.30
2019-03-15T04:14:34.369Z,3.30
2019-03-15T04:15:34.375Z,3.30
2019-03-15T04:16:34.368Z,2.80
2019-03-15T04:17:34.371Z,2.80
2019-03-15T04:18:34.298Z,2.80
2019-03-15T04:19:34.310Z,2.80
2019-03-15T04:20:34.363Z,2.80
2019-03-15T04:21:34.382Z,2.80
2019-03-15T04:22:34.371Z,2.80
2019-03-15T04:23:34.369Z,2.80
2019-03-15T04:24:34.376Z,2.80
2019-03-15T04:25:34.381Z,2.80
2019-03-15T04:26:34.228Z,3.50
2019-03-15T04:27:34.218Z,3.50
2019-03-15T04:28:34.339Z,3.50
2019-03-15T04:29:34.289Z,3.50
2019-03-15T04:30:34.275Z,3.50
2019-03-15T04:31:34.281Z,3.50
2019-03-15T04:32:34.448Z,3.50
2019-03-15T04:33:34.299Z,3.50
2019-03-15T04:34:34.239Z,3.50
2019-03-15T04:35:34.225Z,3.50
2019-03-15T04:36:34.330Z,4.70
2019-03-15T04:37:34.379Z,4.70
2019-03-15T04:38:34.338Z,4.70
2019-03-15T04:39:34.384Z,4.70
2019-03-15T04:40:34.386Z,4.70
2019-03-15T04:41:34.333Z,4.70
2019-03-15T04:42:34.323Z,4.70
2019-03-15T04:43:34.392Z,4.70
2019-03-15T04:44:34.327Z,4.70
2019-03-15T04:45:34.392Z,4.70
2019-03-15T04:46:34.453Z,3.50
2019-03-15T04:47:34.293Z,3.50
2019-03-15T04:48:34.301Z,3.50
2019-03-15T04:49:34.332Z,3.50
2019-03-15T04:50:34.306Z,3.50
2019-03-15T04:51:34.287Z,3.50
2019-03-15T04:52:34.272Z,3.50
2019-03-15T04:53:34.241Z,3.50
2019-03-15T04:54:34.275Z,3.50
2019-03-15T04:55:34.287Z,3.50
2019-03-15T04:56:34.320Z,3.50
2019-03-15T04:57:34.398Z,3.50
2019-03-15T04:58:34.334Z,3.50
2019-03-15T04:59:34.328Z,3.50
2019-03-15T05:00:34.400Z,3.50
2019-03-15T05:01:34.405Z,3.50
2019-03-15T05:02:34.393Z,3.50
2019-03-15T05:03:34.405Z,3.50
2019-03-15T05:04:34.336Z,3.50
2019-03-15T05:05:34.334Z,3.50
2019-03-15T05:06:34.355Z,3.50
2019-03-15T05:07:34.407Z,3.50
2019-03-15T05:08:34.406Z,3.50
2019-03-15T05:09:34.410Z,3.50
2019-03-15T05:10:34.336Z,3.50
2019-03-15T05:11:34.393Z,3.50
2019-03-15T05:12:34.334Z,3.50
2019-03-15T05:13:34.360Z,3.50
2019-03-15T05:14:34.417Z,3.50
2019-03-15T05:15:34.338Z,3.50
2019-03-15T05:16:34.438Z,3.70
2019-03-15T05:17:34.360Z,3.70
2019-03-15T05:18:34.409Z,3.70
2019-03-15T05:19:34.339Z,3.70
2019-03-15T05:20:34.306Z,3.70
2019-03-15T05:21:34.417Z,3.70
2019-03-15T05:22:34.414Z,3.70
2019-03-15T05:23:34.389Z,3.70
2019-03-15T05:24:34.358Z,3.70
2019-03-15T05:25:34.355Z,3.70
2019-03-15T05:26:34.407Z,3.20
2019-03-15T05:27:34.341Z,3.20
2019-03-15T05:28:34.407Z,3.20
2019-03-15T05:29:34.369Z,3.20
2019-03-15T05:30:34.410Z,3.20
2019-03-15T05:31:34.411Z,3.20
2019-03-15T05:32:34.343Z,3.20
2019-03-15T05:33:34.412Z,3.20
2019-03-15T05:34:34.410Z,3.20
2019-03-15T05:35:34.341Z,3.20
2019-03-15T05:36:34.435Z,3.70
2019-03-15T05:37:34.425Z,3.70
2019-03-15T05:38:34.968Z,3.70
2019-03-15T05:39:34.414Z,3.70
2019-03-15T05:40:34.480Z,3.70
2019-03-15T05:41:34.367Z,3.70
2019-03-15T05:42:34.362Z,3.70
2019-03-15T05:43:34.438Z,3.70
2019-03-15T05:44:34.430Z,3.70
2019-03-15T05:45:34.356Z,3.70
2019-03-15T05:46:34.348Z,3.30
2019-03-15T05:47:34.397Z,3.30
2019-03-15T05:48:34.331Z,3.30
2019-03-15T05:49:34.376Z,3.30
2019-03-15T05:50:34.353Z,3.30
2019-03-15T05:51:34.347Z,3.30
2019-03-15T05:52:34.424Z,3.30
2019-03-15T05:53:34.421Z,3.30
2019-03-15T05:54:34.425Z,3.30
2019-03-15T05:55:34.404Z,3.30
2019-03-15T05:56:34.377Z,3.90
2019-03-15T05:57:34.372Z,3.90
2019-03-15T05:58:34.437Z,3.90
2019-03-15T05:59:34.374Z,3.90
2019-03-15T06:00:34.404Z,3.90
2019-03-15T06:01:34.439Z,3.90
2019-03-15T06:02:34.440Z,3.90
2019-03-15T06:03:47.422Z,3.90
2019-03-15T06:04:34.435Z,3.90
2019-03-15T06:05:34.437Z,3.90
2019-03-15T06:06:34.373Z,3.30
2019-03-15T06:07:34.406Z,3.30
2019-03-15T06:08:34.507Z,3.30
2019-03-15T06:09:34.445Z,3.30
2019-03-15T06:10:34.444Z,3.30
2019-03-15T06:11:34.411Z,3.30
2019-03-15T06:12:34.444Z,3.30
2019-03-15T06:13:34.375Z,3.30
2019-03-15T06:14:34.385Z,3.30
2019-03-15T06:15:34.380Z,3.30
2019-03-15T06:16:34.450Z,3.30
2019-03-15T06:17:34.450Z,4.20
2019-03-15T06:18:34.402Z,4.20
2019-03-15T06:19:34.459Z,4.20
2019-03-15T06:20:34.384Z,4.20
2019-03-15T06:21:34.513Z,4.20
2019-03-15T06:22:34.383Z,4.20
2019-03-15T06:23:34.383Z,4.20
2019-03-15T06:24:34.398Z,4.20
2019-03-15T06:25:34.465Z,4.20
2019-03-15T06:26:34.460Z,4.20
2019-03-15T06:27:34.389Z,2.90
2019-03-15T06:28:34.449Z,2.90
2019-03-15T06:29:34.320Z,2.90
2019-03-15T06:30:34.452Z,2.90
2019-03-15T06:31:34.488Z,2.90
2019-03-15T06:32:34.440Z,2.90
2019-03-15T06:33:34.329Z,2.90
2019-03-15T06:34:34.442Z,2.90
2019-03-15T06:35:34.400Z,2.90
2019-03-15T06:36:34.328Z,2.90
2019-03-15T06:37:34.461Z,3.60
2019-03-15T06:38:34.407Z,3.60
2019-03-15T06:39:34.400Z,3.60
2019-03-15T06:40:34.467Z,3.60
2019-03-15T06:41:34.476Z,3.60
2019-03-15T06:42:34.464Z,3.60
2019-03-15T06:43:34.471Z,3.60
2019-03-15T06:44:37.399Z,3.60
2019-03-15T06:45:34.397Z,3.60
2019-03-15T06:46:34.403Z,3.60
2019-03-15T06:47:34.473Z,4.60
2019-03-15T06:48:34.469Z,4.60
2019-03-15T06:49:34.400Z,4.60
2019-03-15T06:50:34.473Z,4.60
2019-03-15T06:51:34.403Z,4.60
2019-03-15T06:52:34.412Z,4.60
2019-03-15T06:53:34.406Z,4.60
2019-03-15T06:54:34.476Z,4.60
2019-03-15T06:55:34.414Z,4.60
2019-03-15T06:56:34.478Z,4.60
2019-03-15T06:57:34.406Z,5.80
2019-03-15T06:58:34.469Z,5.80
2019-03-15T06:59:34.468Z,5.80
2019-03-15T07:00:34.382Z,5.80
2019-03-15T07:01:34.405Z,5.80
2019-03-15T07:02:34.404Z,5.80
2019-03-15T07:03:34.372Z,5.80
2019-03-15T07:04:34.468Z,5.80
2019-03-15T07:05:34.494Z,5.80
2019-03-15T07:06:34.389Z,5.80
2019-03-15T07:07:34.471Z,2.60
2019-03-15T07:08:34.408Z,2.60
2019-03-15T07:09:34.406Z,2.60
2019-03-15T07:10:34.476Z,2.60
2019-03-15T07:11:34.480Z,2.60
2019-03-15T07:12:34.482Z,2.60
2019-03-15T07:13:34.491Z,2.60
2019-03-15T07:14:34.483Z,2.60
2019-03-15T07:15:34.479Z,2.60
2019-03-15T07:16:34.452Z,2.60
2019-03-15T07:17:34.472Z,3.20
2019-03-15T07:18:35.447Z,3.20
2019-03-15T07:19:34.399Z,3.20
2019-03-15T07:20:34.483Z,3.20
2019-03-15T07:21:36.790Z,3.20
2019-03-15T07:22:34.484Z,3.20
2019-03-15T07:23:34.383Z,3.20
2019-03-15T07:24:34.484Z,3.20
2019-03-15T07:25:34.461Z,3.20
2019-03-15T07:26:34.473Z,3.20
2019-03-15T07:27:34.497Z,2.30
2019-03-15T07:28:34.494Z,2.30
2019-03-15T07:29:34.447Z,2.30
2019-03-15T07:30:34.507Z,2.30
2019-03-15T07:31:34.434Z,2.30
2019-03-15T07:32:34.498Z,2.30
2019-03-15T07:33:34.434Z,2.30
2019-03-15T07:34:34.506Z,2.30
2019-03-15T07:35:34.437Z,2.30
2019-03-15T07:36:37.124Z,2.30
2019-03-15T07:37:34.510Z,2.50
2019-03-15T07:38:34.513Z,2.50
2019-03-15T07:39:34.504Z,2.50
2019-03-15T07:40:34.459Z,2.50
2019-03-15T07:41:34.440Z,2.50
2019-03-15T07:42:34.437Z,2.50
2019-03-15T07:43:34.510Z,2.50
2019-03-15T07:44:34.442Z,2.50
2019-03-15T07:45:34.510Z,2.50
2019-03-15T07:46:34.521Z,2.50
2019-03-15T07:47:34.371Z,3.00
2019-03-15T07:48:34.381Z,3.00
2019-03-15T07:49:34.568Z,3.00
2019-03-15T07:50:34.400Z,3.00
2019-03-15T07:51:34.396Z,3.00
2019-03-15T07:52:34.435Z,3.00
2019-03-15T07:53:35.526Z,3.00
2019-03-15T07:54:38.224Z,3.00
2019-03-15T07:55:34.464Z,3.00
2019-03-15T07:56:34.454Z,3.00
2019-03-15T07:57:34.530Z,7.60
2019-03-15T07:58:34.518Z,7.60
2019-03-15T07:59:34.527Z,7.60
2019-03-15T08:00:34.517Z,7.60
2019-03-15T08:01:34.532Z,7.60
2019-03-15T08:02:34.531Z,7.60
2019-03-15T08:03:34.998Z,7.60
2019-03-15T08:04:35.979Z,7.60
2019-03-15T08:05:34.546Z,7.60
2019-03-15T08:06:36.257Z,7.60
2019-03-15T08:07:37.810Z,6.90
2019-03-15T08:08:34.623Z,6.90
2019-03-15T08:09:34.529Z,6.90
2019-03-15T08:10:34.464Z,6.90
2019-03-15T08:11:34.478Z,6.90
2019-03-15T08:12:34.537Z,6.90
2019-03-15T08:13:34.487Z,6.90
2019-03-15T08:14:34.529Z,6.90
2019-03-15T08:15:34.530Z,6.90
2019-03-15T08:16:34.795Z,6.90
2019-03-15T08:17:34.462Z,3.50
2019-03-15T08:18:34.497Z,3.50
2019-03-15T08:19:34.437Z,3.50
2019-03-15T08:20:34.528Z,3.50
2019-03-15T08:21:34.453Z,3.50
2019-03-15T08:22:34.530Z,3.50
2019-03-15T08:23:34.457Z,3.50
2019-03-15T08:24:36.680Z,3.50
2019-03-15T08:25:34.456Z,3.50
2019-03-15T08:26:34.461Z,3.50
2019-03-15T08:27:34.418Z,4.40
2019-03-15T08:28:34.523Z,4.40
2019-03-15T08:29:34.498Z,4.40
2019-03-15T08:30:34.460Z,4.40
2019-03-15T08:31:34.461Z,4.40
2019-03-15T08:32:34.473Z,4.40
2019-03-15T08:33:34.469Z,4.40
2019-03-15T08:34:34.433Z,4.40
2019-03-15T08:35:34.507Z,4.40
2019-03-15T08:36:34.451Z,4.40
2019-03-15T08:37:34.575Z,3.80
2019-03-15T08:38:46.773Z,3.80
2019-03-15T08:39:34.522Z,3.80
2019-03-15T08:40:34.486Z,3.80
2019-03-15T08:41:34.569Z,3.80
2019-03-15T08:42:34.868Z,3.80
2019-03-15T08:43:34.482Z,3.80
2019-03-15T08:44:34.561Z,3.80
2019-03-15T08:45:34.491Z,3.80
2019-03-15T08:46:34.484Z,3.80
2019-03-15T08:47:34.454Z,3.50
2019-03-15T08:48:34.381Z,3.50
2019-03-15T08:49:34.523Z,3.50
2019-03-15T08:50:34.413Z,3.50
2019-03-15T08:51:34.510Z,3.50
2019-03-15T08:52:34.414Z,3.50
2019-03-15T08:53:34.514Z,3.50
2019-03-15T08:54:34.499Z,3.50
2019-03-15T08:55:34.490Z,3.50
2019-03-15T08:56:34.559Z,3.50
2019-03-15T08:57:34.435Z,4.10
2019-03-15T08:58:34.516Z,4.10
2019-03-15T08:59:34.555Z,4.10
2019-03-15T09:00:34.496Z,4.10
2019-03-15T09:01:34.557Z,4.10
2019-03-15T09:02:34.561Z,4.10
2019-03-15T09:03:34.775Z,4.10
2019-03-15T09:04:34.485Z,4.10
2019-03-15T09:05:34.489Z,4.10
2019-03-15T09:06:34.531Z,4.10
2019-03-15T09:07:34.569Z,4.30
2019-03-15T09:08:37.227Z,4.30
2019-03-15T09:09:35.919Z,4.30
2019-03-15T09:10:34.570Z,4.30
2019-03-15T09:11:34.582Z,4.30
2019-03-15T09:12:34.640Z,4.30
2019-03-15T09:13:34.572Z,4.30
2019-03-15T09:14:34.583Z,4.30
2019-03-15T09:15:34.526Z,4.30
2019-03-15T09:16:34.521Z,4.30
2019-03-15T09:17:34.584Z,9.60
2019-03-15T09:18:34.580Z,9.60
2019-03-15T09:19:34.620Z,9.60
2019-03-15T09:20:34.580Z,9.60
2019-03-15T09:21:34.511Z,9.60
2019-03-15T09:22:37.730Z,9.60
2019-03-15T09:23:34.580Z,9.60
2019-03-15T09:24:34.578Z,9.60
2019-03-15T09:25:34.592Z,9.60
2019-03-15T09:26:34.586Z,9.60
2019-03-15T09:27:34.656Z,4.80
2019-03-15T09:28:34.516Z,4.80
2019-03-15T09:29:34.516Z,4.80
2019-03-15T09:30:34.676Z,4.80
2019-03-15T09:31:46.947Z,4.80
2019-03-15T09:32:34.584Z,4.80
2019-03-15T09:33:34.518Z,4.80
2019-03-15T09:34:34.585Z,4.80
2019-03-15T09:35:34.551Z,4.80
2019-03-15T09:36:34.592Z,4.80
2019-03-15T09:37:34.588Z,4.30
2019-03-15T09:38:34.597Z,4.30
2019-03-15T09:39:34.524Z,4.30
2019-03-15T09:40:34.598Z,4.30
2019-03-15T09:41:39.912Z,4.30
2019-03-15T09:42:34.531Z,4.30
2019-03-15T09:43:34.645Z,4.30
2019-03-15T09:44:37.435Z,4.30
2019-03-15T09:45:34.489Z,4.30
2019-03-15T09:46:34.598Z,4.30
2019-03-15T09:47:34.528Z,5.60
2019-03-15T09:48:34.597Z,5.60
2019-03-15T09:49:34.531Z,5.60
2019-03-15T09:50:50.191Z,5.60
2019-03-15T09:51:34.536Z,5.60
2019-03-15T09:52:34.533Z,5.60
2019-03-15T09:53:34.601Z,5.60
2019-03-15T09:54:34.605Z,5.60
2019-03-15T09:55:34.540Z,5.60
2019-03-15T09:56:34.603Z,5.60
2019-03-15T09:57:34.555Z,3.90
2019-03-15T09:58:34.549Z,3.90
2019-03-15T09:59:34.492Z,3.90
2019-03-15T10:00:34.532Z,3.90
2019-03-15T10:01:35.582Z,3.90
2019-03-15T10:02:34.561Z,3.90
2019-03-15T10:03:34.511Z,3.90
2019-03-15T10:04:36.037Z,3.90
2019-03-15T10:05:34.533Z,3.90
2019-03-15T10:06:34.511Z,3.90
2019-03-15T10:07:38.821Z,6.60
2019-03-15T10:08:34.529Z,6.60
2019-03-15T10:09:45.355Z,6.60
2019-03-15T10:10:34.533Z,6.60
2019-03-15T10:11:34.608Z,6.60
2019-03-15T10:12:34.610Z,6.60
2019-03-15T10:13:34.613Z,6.60
2019-03-15T10:14:34.533Z,6.60
2019-03-15T10:15:34.639Z,6.60
2019-03-15T10:16:34.545Z,6.60
2019-03-15T10:17:34.545Z,6.10
2019-03-15T10:18:34.491Z,6.10
2019-03-15T10:19:34.489Z,6.10
2019-03-15T10:20:34.530Z,6.10
2019-03-15T10:21:34.615Z,6.10
2019-03-15T10:22:34.616Z,6.10
2019-03-15T10:23:34.505Z,6.10
2019-03-15T10:24:34.530Z,6.10
2019-03-15T10:25:45.917Z,6.10
2019-03-15T10:26:34.561Z,6.10
2019-03-15T10:27:34.566Z,3.10
2019-03-15T10:28:34.629Z,3.10
2019-03-15T10:29:34.561Z,3.10
2019-03-15T10:30:34.560Z,3.10
2019-03-15T10:31:34.641Z,3.10
2019-03-15T10:32:34.628Z,3.10
2019-03-15T10:33:34.566Z,3.10
2019-03-15T10:34:35.762Z,3.10
2019-03-15T10:35:34.577Z,3.10
2019-03-15T10:36:34.909Z,3.10
2019-03-15T10:37:34.568Z,2.80
2019-03-15T10:38:34.565Z,2.80
2019-03-15T10:39:34.633Z,2.80
2019-03-15T10:40:34.639Z,2.80
2019-03-15T10:41:37.957Z,2.80
2019-03-15T10:42:34.639Z,2.80
2019-03-15T10:43:34.675Z,2.80
2019-03-15T10:44:34.644Z,2.80
2019-03-15T10:45:34.643Z,2.80
2019-03-15T10:46:34.614Z,2.80
2019-03-15T10:47:34.548Z,3.30
2019-03-15T10:48:34.632Z,3.30
2019-03-15T10:49:34.558Z,3.30
2019-03-15T10:50:34.585Z,3.30
2019-03-15T10:51:34.520Z,3.30
2019-03-15T10:52:34.589Z,3.30
2019-03-15T10:53:34.563Z,3.30
2019-03-15T10:54:34.638Z,3.30
2019-03-15T10:55:34.637Z,3.30
2019-03-15T10:56:34.578Z,3.30
2019-03-15T10:57:34.579Z,4.20
2019-03-15T10:58:34.579Z,4.20
2019-03-15T10:59:34.586Z,4.20
2019-03-15T11:00:34.608Z,4.20
2019-03-15T11:01:34.593Z,4.20
2019-03-15T11:02:34.585Z,4.20
2019-03-15T11:03:34.656Z,4.20
2019-03-15T11:04:34.655Z,4.20
2019-03-15T11:05:34.590Z,4.20
2019-03-15T11:06:34.558Z,4.20
2019-03-15T11:07:34.655Z,2.20
2019-03-15T11:08:34.655Z,2.20
2019-03-15T11:09:34.656Z,2.20
2019-03-15T11:10:34.655Z,2.20
2019-03-15T11:11:34.660Z,2.20
2019-03-15T11:12:34.634Z,2.20
2019-03-15T11:13:34.663Z,2.20
2019-03-15T11:14:34.662Z,2.20
2019-03-15T11:15:34.670Z,2.20
2019-03-15T11:16:34.595Z,2.20
2019-03-15T11:17:34.615Z,2.20
2019-03-15T11:18:34.663Z,2.20
2019-03-15T11:19:34.596Z,2.20
2019-03-15T11:20:34.663Z,2.20
2019-03-15T11:21:34.617Z,2.20
2019-03-15T11:22:34.666Z,2.20
2019-03-15T11:23:34.600Z,2.20
2019-03-15T11:24:34.664Z,2.20
2019-03-15T11:25:34.616Z,2.20
2019-03-15T11:26:34.670Z,2.20
2019-03-15T11:27:34.599Z,1.20
2019-03-15T11:28:34.682Z,1.20
2019-03-15T11:29:34.603Z,1.20
2019-03-15T11:30:34.672Z,1.20
2019-03-15T11:31:34.671Z,1.20
2019-03-15T11:32:34.671Z,1.20
2019-03-15T11:33:34.619Z,1.20
2019-03-15T11:34:34.602Z,1.20
2019-03-15T11:35:34.604Z,1.20
2019-03-15T11:36:34.678Z,1.20
2019-03-15T11:37:34.578Z,1.90
2019-03-15T11:38:34.602Z,1.90
2019-03-15T11:39:34.601Z,1.90
2019-03-15T11:40:37.807Z,1.90
2019-03-15T11:41:34.664Z,1.90
2019-03-15T11:42:34.670Z,1.90
2019-03-15T11:43:34.667Z,1.90
2019-03-15T11:44:34.601Z,1.90
2019-03-15T11:45:34.683Z,1.90
2019-03-15T11:46:34.629Z,1.90
2019-03-15T11:47:50.241Z,2.50
2019-03-15T11:48:34.678Z,2.50
2019-03-15T11:49:34.606Z,2.50
2019-03-15T11:50:34.606Z,2.50
2019-03-15T11:51:34.698Z,2.50
2019-03-15T11:52:34.679Z,2.50
2019-03-15T11:53:34.567Z,2.50
2019-03-15T11:54:34.604Z,2.50
2019-03-15T11:55:34.676Z,2.50
2019-03-15T11:56:34.677Z,2.50
2019-03-15T11:57:34.614Z,1.90
2019-03-15T11:58:34.697Z,1.90
2019-03-15T11:59:36.222Z,1.90
2019-03-15T12:00:34.680Z,1.90
2019-03-15T12:01:37.605Z,1.90
2019-03-15T12:02:34.688Z,1.90
2019-03-15T12:03:34.626Z,1.90
2019-03-15T12:04:34.625Z,1.90
2019-03-15T12:05:34.613Z,1.90
2019-03-15T12:06:34.603Z,1.90
2019-03-15T12:07:34.629Z,2.70
2019-03-15T12:08:34.697Z,2.70
2019-03-15T12:09:34.704Z,2.70
2019-03-15T12:10:34.634Z,2.70
2019-03-15T12:11:34.727Z,2.70
2019-03-15T12:12:34.699Z,2.70
2019-03-15T12:13:34.634Z,2.70
2019-03-15T12:14:40.815Z,2.70
2019-03-15T12:15:36.380Z,2.70
2019-03-15T12:16:34.703Z,2.70
2019-03-15T12:17:34.708Z,1.20
2019-03-15T12:18:34.708Z,1.20
2019-03-15T12:19:34.704Z,1.20
2019-03-15T12:20:34.712Z,1.20
2019-03-15T12:21:34.649Z,1.20
2019-03-15T12:22:34.637Z,1.20
2019-03-15T12:23:34.707Z,1.20
2019-03-15T12:24:34.734Z,1.20
2019-03-15T12:25:34.645Z,1.20
2019-03-15T12:26:40.158Z,1.20
2019-03-15T12:27:34.644Z,1.20
2019-03-15T12:28:34.649Z,1.20
2019-03-15T12:29:34.647Z,1.20
2019-03-15T12:30:34.647Z,1.20
2019-03-15T12:31:34.665Z,1.20
2019-03-15T12:32:34.723Z,1.20
2019-03-15T12:33:34.660Z,1.20
2019-03-15T12:34:34.651Z,1.20
2019-03-15T12:35:34.714Z,1.20
2019-03-15T12:36:34.717Z,1.20
2019-03-15T12:37:34.651Z,1.20
2019-03-15T12:38:34.606Z,1.70
2019-03-15T12:39:34.723Z,1.70
2019-03-15T12:40:34.653Z,1.70
2019-03-15T12:41:34.655Z,1.70
2019-03-15T12:42:34.670Z,1.70
2019-03-15T12:43:34.655Z,1.70
2019-03-15T12:44:34.660Z,1.70
2019-03-15T12:45:34.721Z,1.70
2019-03-15T12:46:34.660Z,1.70
2019-03-15T12:47:34.740Z,1.70
2019-03-15T12:48:34.720Z,2.30
2019-03-15T12:49:34.718Z,2.30
2019-03-15T12:50:34.696Z,2.30
2019-03-15T12:51:34.632Z,2.30
2019-03-15T12:52:46.572Z,2.30
2019-03-15T12:53:34.656Z,2.30
2019-03-15T12:54:34.614Z,2.30
2019-03-15T12:55:34.721Z,2.30
2019-03-15T12:56:34.609Z,2.30
2019-03-15T12:57:34.721Z,2.30
2019-03-15T12:58:34.681Z,3.30
2019-03-15T12:59:34.744Z,3.30
2019-03-15T13:00:34.681Z,3.30
2019-03-15T13:01:34.748Z,3.30
2019-03-15T13:02:34.671Z,3.30
2019-03-15T13:03:34.734Z,3.30
2019-03-15T13:04:34.750Z,3.30
2019-03-15T13:05:34.692Z,3.30
2019-03-15T13:06:34.739Z,3.30
2019-03-15T13:07:34.742Z,3.30
2019-03-15T13:08:34.736Z,3.50
2019-03-15T13:09:34.684Z,3.50
2019-03-15T13:10:34.746Z,3.50
2019-03-15T13:11:34.774Z,3.50
2019-03-15T13:12:34.678Z,3.50
2019-03-15T13:13:34.760Z,3.50
2019-03-15T13:14:34.706Z,3.50
2019-03-15T13:15:34.677Z,3.50
2019-03-15T13:16:34.754Z,3.50
2019-03-15T13:17:34.743Z,3.50
2019-03-15T13:18:34.745Z,3.40